sensor_id;sensor_type;location;lat;lon;timestamp;P1;durP1;ratioP1;P2;durP2;ratioP2
34278;SDS011;20538;51.528;9.942;2023-02-28T00:00:32;2.00;;;1.33;;
34278;SDS011;20538;51.528;9.942;2023-02-28T00:02:58;4.20;;;1.63;;
34278;SDS011;20538;51.528;9.942;2023-02-28T00:05:25;2.85;;;1.70;;
34278;SDS011;20538;51.528;9.942;2023-02-28T00:07:52;4.55;;;1.50;;
34278;SDS011;20538;51.528;9.942;2023-02-28T00:10:19;1.95;;;1.30;;
34278;SDS011;20538;51.528;9.942;2023-02-28T00:12:48;2.35;;;1.35;;
34278;SDS011;20538;51.528;9.942;2023-02-28T00:15:15;4.15;;;1.35;;
34278;SDS011;20538;51.528;9.942;2023-02-28T00:17:41;2.45;;;1.52;;
34278;SDS011;20538;51.528;9.942;2023-02-28T00:20:07;3.78;;;1.27;;
34278;SDS011;20538;51.528;9.942;2023-02-28T00:22:40;2.03;;;1.38;;
34278;SDS011;20538;51.528;9.942;2023-02-28T00:25:08;2.80;;;1.38;;
34278;SDS011;20538;51.528;9.942;2023-02-28T00:27:35;3.50;;;1.48;;
34278;SDS011;20538;51.528;9.942;2023-02-28T00:30:01;1.73;;;1.27;;
34278;SDS011;20538;51.528;9.942;2023-02-28T00:32:27;3.33;;;1.70;;
34278;SDS011;20538;51.528;9.942;2023-02-28T00:34:52;3.40;;;1.42;;
34278;SDS011;20538;51.528;9.942;2023-02-28T00:37:18;5.43;;;1.80;;
34278;SDS011;20538;51.528;9.942;2023-02-28T00:39:44;3.22;;;1.58;;
34278;SDS011;20538;51.528;9.942;2023-02-28T00:42:09;3.75;;;1.48;;
34278;SDS011;20538;51.528;9.942;2023-02-28T00:44:35;3.05;;;1.25;;
34278;SDS011;20538;51.528;9.942;2023-02-28T00:47:01;7.35;;;1.70;;
34278;SDS011;20538;51.528;9.942;2023-02-28T00:49:26;3.03;;;1.70;;
34278;SDS011;20538;51.528;9.942;2023-02-28T00:51:53;3.45;;;1.67;;
34278;SDS011;20538;51.528;9.942;2023-02-28T00:54:20;3.55;;;1.90;;
34278;SDS011;20538;51.528;9.942;2023-02-28T00:56:47;2.53;;;1.42;;
34278;SDS011;20538;51.528;9.942;2023-02-28T00:59:13;3.05;;;1.60;;
34278;SDS011;20538;51.528;9.942;2023-02-28T01:01:40;3.92;;;2.13;;
34278;SDS011;20538;51.528;9.942;2023-02-28T01:04:05;4.93;;;2.08;;
34278;SDS011;20538;51.528;9.942;2023-02-28T01:06:31;2.88;;;1.67;;
34278;SDS011;20538;51.528;9.942;2023-02-28T01:08:57;4.30;;;1.60;;
34278;SDS011;20538;51.528;9.942;2023-02-28T01:11:24;4.07;;;1.58;;
34278;SDS011;20538;51.528;9.942;2023-02-28T01:13:49;3.78;;;1.35;;
34278;SDS011;20538;51.528;9.942;2023-02-28T01:16:15;2.33;;;1.42;;
34278;SDS011;20538;51.528;9.942;2023-02-28T01:18:41;2.70;;;1.50;;
34278;SDS011;20538;51.528;9.942;2023-02-28T01:21:11;4.70;;;1.30;;
34278;SDS011;20538;51.528;9.942;2023-02-28T01:23:39;5.43;;;1.55;;
34278;SDS011;20538;51.528;9.942;2023-02-28T01:26:09;2.08;;;1.33;;
34278;SDS011;20538;51.528;9.942;2023-02-28T01:28:39;5.43;;;1.73;;
34278;SDS011;20538;51.528;9.942;2023-02-28T01:31:06;3.97;;;1.30;;
34278;SDS011;20538;51.528;9.942;2023-02-28T01:33:32;2.30;;;1.38;;
34278;SDS011;20538;51.528;9.942;2023-02-28T01:35:58;2.58;;;1.67;;
34278;SDS011;20538;51.528;9.942;2023-02-28T01:38:24;2.25;;;1.52;;
34278;SDS011;20538;51.528;9.942;2023-02-28T01:40:50;2.97;;;1.30;;
34278;SDS011;20538;51.528;9.942;2023-02-28T01:43:26;3.75;;;1.50;;
34278;SDS011;20538;51.528;9.942;2023-02-28T01:45:54;3.33;;;1.20;;
34278;SDS011;20538;51.528;9.942;2023-02-28T01:48:21;4.85;;;1.20;;
34278;SDS011;20538;51.528;9.942;2023-02-28T01:50:51;2.75;;;1.27;;
34278;SDS011;20538;51.528;9.942;2023-02-28T01:53:18;2.15;;;1.10;;
34278;SDS011;20538;51.528;9.942;2023-02-28T01:55:49;4.80;;;1.08;;
34278;SDS011;20538;51.528;9.942;2023-02-28T01:58:16;2.15;;;1.13;;
34278;SDS011;20538;51.528;9.942;2023-02-28T02:00:42;2.00;;;1.00;;
34278;SDS011;20538;51.528;9.942;2023-02-28T02:03:09;1.90;;;1.05;;
34278;SDS011;20538;51.528;9.942;2023-02-28T02:05:37;5.18;;;1.15;;
34278;SDS011;20538;51.528;9.942;2023-02-28T02:08:04;2.75;;;1.10;;
34278;SDS011;20538;51.528;9.942;2023-02-28T02:10:55;2.70;;;1.10;;
34278;SDS011;20538;51.528;9.942;2023-02-28T02:18:53;2.78;;;1.23;;
34278;SDS011;20538;51.528;9.942;2023-02-28T02:27:22;4.82;;;0.80;;
34278;SDS011;20538;51.528;9.942;2023-02-28T02:37:52;4.85;;;1.00;;
34278;SDS011;20538;51.528;9.942;2023-02-28T02:43:29;1.60;;;1.13;;
34278;SDS011;20538;51.528;9.942;2023-02-28T02:46:04;3.20;;;1.10;;
34278;SDS011;20538;51.528;9.942;2023-02-28T02:48:36;3.40;;;1.02;;
34278;SDS011;20538;51.528;9.942;2023-02-28T02:51:06;2.67;;;0.95;;
34278;SDS011;20538;51.528;9.942;2023-02-28T02:53:38;1.90;;;1.17;;
34278;SDS011;20538;51.528;9.942;2023-02-28T02:56:14;3.53;;;1.63;;
34278;SDS011;20538;51.528;9.942;2023-02-28T02:58:43;4.50;;;1.17;;
34278;SDS011;20538;51.528;9.942;2023-02-28T03:01:15;2.63;;;1.40;;
34278;SDS011;20538;51.528;9.942;2023-02-28T03:03:54;2.42;;;0.90;;
34278;SDS011;20538;51.528;9.942;2023-02-28T03:06:26;2.60;;;1.30;;
34278;SDS011;20538;51.528;9.942;2023-02-28T03:08:52;2.22;;;1.48;;
34278;SDS011;20538;51.528;9.942;2023-02-28T03:11:18;3.08;;;1.30;;
34278;SDS011;20538;51.528;9.942;2023-02-28T03:27:30;4.35;;;1.30;;
34278;SDS011;20538;51.528;9.942;2023-02-28T03:30:09;4.03;;;1.58;;
34278;SDS011;20538;51.528;9.942;2023-02-28T03:33:07;2.70;;;1.00;;
34278;SDS011;20538;51.528;9.942;2023-02-28T03:35:41;2.63;;;1.27;;
34278;SDS011;20538;51.528;9.942;2023-02-28T03:40:47;1.60;;;0.80;;
34278;SDS011;20538;51.528;9.942;2023-02-28T03:43:25;2.17;;;1.13;;
34278;SDS011;20538;51.528;9.942;2023-02-28T03:45:54;8.93;;;1.15;;
34278;SDS011;20538;51.528;9.942;2023-02-28T03:48:26;3.53;;;1.15;;
34278;SDS011;20538;51.528;9.942;2023-02-28T03:50:58;3.50;;;1.42;;
34278;SDS011;20538;51.528;9.942;2023-02-28T03:56:01;6.93;;;1.60;;
34278;SDS011;20538;51.528;9.942;2023-02-28T04:01:39;6.93;;;1.30;;
34278;SDS011;20538;51.528;9.942;2023-02-28T04:04:08;5.22;;;1.33;;
34278;SDS011;20538;51.528;9.942;2023-02-28T04:06:35;4.35;;;1.10;;
34278;SDS011;20538;51.528;9.942;2023-02-28T04:09:02;2.90;;;1.58;;
34278;SDS011;20538;51.528;9.942;2023-02-28T04:11:36;2.38;;;1.20;;
34278;SDS011;20538;51.528;9.942;2023-02-28T04:14:04;7.05;;;1.25;;
34278;SDS011;20538;51.528;9.942;2023-02-28T04:16:31;5.15;;;1.38;;
34278;SDS011;20538;51.528;9.942;2023-02-28T04:18:58;6.57;;;1.50;;
34278;SDS011;20538;51.528;9.942;2023-02-28T04:21:27;1.83;;;1.42;;
34278;SDS011;20538;51.528;9.942;2023-02-28T04:23:56;4.72;;;1.20;;
34278;SDS011;20538;51.528;9.942;2023-02-28T04:26:25;1.58;;;1.00;;
34278;SDS011;20538;51.528;9.942;2023-02-28T04:28:54;2.53;;;1.23;;
34278;SDS011;20538;51.528;9.942;2023-02-28T04:31:20;3.95;;;1.40;;
34278;SDS011;20538;51.528;9.942;2023-02-28T04:33:46;3.00;;;1.27;;
34278;SDS011;20538;51.528;9.942;2023-02-28T04:36:11;5.00;;;1.30;;
34278;SDS011;20538;51.528;9.942;2023-02-28T04:38:39;4.68;;;1.55;;
34278;SDS011;20538;51.528;9.942;2023-02-28T04:41:05;5.07;;;1.30;;
34278;SDS011;20538;51.528;9.942;2023-02-28T04:43:31;1.83;;;1.17;;
34278;SDS011;20538;51.528;9.942;2023-02-28T04:45:58;2.92;;;1.33;;
34278;SDS011;20538;51.528;9.942;2023-02-28T04:48:27;2.97;;;1.20;;
34278;SDS011;20538;51.528;9.942;2023-02-28T04:50:54;4.53;;;1.48;;
34278;SDS011;20538;51.528;9.942;2023-02-28T04:53:24;12.50;;;1.80;;
34278;SDS011;20538;51.528;9.942;2023-02-28T04:55:50;6.47;;;1.50;;
34278;SDS011;20538;51.528;9.942;2023-02-28T04:58:16;5.55;;;1.40;;
34278;SDS011;20538;51.528;9.942;2023-02-28T05:00:42;1.80;;;1.08;;
34278;SDS011;20538;51.528;9.942;2023-02-28T05:03:07;3.58;;;1.33;;
34278;SDS011;20538;51.528;9.942;2023-02-28T05:05:34;3.88;;;1.27;;
34278;SDS011;20538;51.528;9.942;2023-02-28T05:08:00;3.50;;;1.25;;
34278;SDS011;20538;51.528;9.942;2023-02-28T05:10:25;5.93;;;1.77;;
34278;SDS011;20538;51.528;9.942;2023-02-28T05:12:51;4.13;;;1.33;;
34278;SDS011;20538;51.528;9.942;2023-02-28T05:15:17;3.20;;;1.70;;
34278;SDS011;20538;51.528;9.942;2023-02-28T05:17:42;5.00;;;1.50;;
34278;SDS011;20538;51.528;9.942;2023-02-28T05:20:09;6.65;;;1.30;;
34278;SDS011;20538;51.528;9.942;2023-02-28T05:22:36;4.63;;;1.17;;
34278;SDS011;20538;51.528;9.942;2023-02-28T05:25:02;3.25;;;1.33;;
34278;SDS011;20538;51.528;9.942;2023-02-28T05:27:29;1.85;;;1.17;;
34278;SDS011;20538;51.528;9.942;2023-02-28T05:29:56;3.30;;;1.73;;
34278;SDS011;20538;51.528;9.942;2023-02-28T05:32:21;4.68;;;2.20;;
34278;SDS011;20538;51.528;9.942;2023-02-28T05:34:47;3.08;;;1.20;;
34278;SDS011;20538;51.528;9.942;2023-02-28T05:37:13;3.65;;;1.08;;
34278;SDS011;20538;51.528;9.942;2023-02-28T05:39:40;6.03;;;1.70;;
34278;SDS011;20538;51.528;9.942;2023-02-28T05:42:06;5.22;;;1.90;;
34278;SDS011;20538;51.528;9.942;2023-02-28T05:44:32;2.60;;;1.35;;
34278;SDS011;20538;51.528;9.942;2023-02-28T05:46:58;4.45;;;1.45;;
34278;SDS011;20538;51.528;9.942;2023-02-28T05:49:24;3.05;;;1.55;;
34278;SDS011;20538;51.528;9.942;2023-02-28T05:51:49;4.15;;;1.42;;
34278;SDS011;20538;51.528;9.942;2023-02-28T05:54:15;8.27;;;1.83;;
34278;SDS011;20538;51.528;9.942;2023-02-28T05:56:41;3.20;;;1.50;;
34278;SDS011;20538;51.528;9.942;2023-02-28T05:59:09;4.32;;;1.92;;
34278;SDS011;20538;51.528;9.942;2023-02-28T06:01:36;3.72;;;1.63;;
34278;SDS011;20538;51.528;9.942;2023-02-28T06:04:08;5.05;;;1.90;;
34278;SDS011;20538;51.528;9.942;2023-02-28T06:06:35;4.43;;;1.83;;
34278;SDS011;20538;51.528;9.942;2023-02-28T06:09:02;8.23;;;2.58;;
34278;SDS011;20538;51.528;9.942;2023-02-28T06:11:31;6.22;;;1.58;;
34278;SDS011;20538;51.528;9.942;2023-02-28T06:13:58;5.40;;;1.98;;
34278;SDS011;20538;51.528;9.942;2023-02-28T06:16:26;5.45;;;2.17;;
34278;SDS011;20538;51.528;9.942;2023-02-28T06:18:52;5.05;;;2.28;;
34278;SDS011;20538;51.528;9.942;2023-02-28T06:21:20;4.05;;;2.10;;
34278;SDS011;20538;51.528;9.942;2023-02-28T06:23:46;5.10;;;1.70;;
34278;SDS011;20538;51.528;9.942;2023-02-28T06:26:12;2.17;;;1.50;;
34278;SDS011;20538;51.528;9.942;2023-02-28T06:28:38;2.90;;;1.50;;
34278;SDS011;20538;51.528;9.942;2023-02-28T06:31:07;4.07;;;1.77;;
34278;SDS011;20538;51.528;9.942;2023-02-28T06:33:34;3.13;;;1.55;;
34278;SDS011;20538;51.528;9.942;2023-02-28T06:36:01;6.40;;;4.25;;
34278;SDS011;20538;51.528;9.942;2023-02-28T06:38:26;7.72;;;2.20;;
34278;SDS011;20538;51.528;9.942;2023-02-28T06:40:52;11.55;;;1.98;;
34278;SDS011;20538;51.528;9.942;2023-02-28T06:43:22;9.77;;;2.33;;
34278;SDS011;20538;51.528;9.942;2023-02-28T06:45:48;5.50;;;1.95;;
34278;SDS011;20538;51.528;9.942;2023-02-28T06:48:14;2.10;;;1.25;;
34278;SDS011;20538;51.528;9.942;2023-02-28T06:50:40;3.38;;;1.60;;
34278;SDS011;20538;51.528;9.942;2023-02-28T06:53:05;6.15;;;1.60;;
34278;SDS011;20538;51.528;9.942;2023-02-28T06:55:31;3.25;;;1.60;;
34278;SDS011;20538;51.528;9.942;2023-02-28T06:57:57;4.97;;;1.65;;
34278;SDS011;20538;51.528;9.942;2023-02-28T07:00:23;5.15;;;1.67;;
34278;SDS011;20538;51.528;9.942;2023-02-28T07:02:49;8.68;;;2.00;;
34278;SDS011;20538;51.528;9.942;2023-02-28T07:05:16;3.92;;;1.50;;
34278;SDS011;20538;51.528;9.942;2023-02-28T07:07:42;9.50;;;1.75;;
34278;SDS011;20538;51.528;9.942;2023-02-28T07:10:11;7.65;;;2.20;;
34278;SDS011;20538;51.528;9.942;2023-02-28T07:12:39;6.50;;;1.50;;
34278;SDS011;20538;51.528;9.942;2023-02-28T07:15:05;8.32;;;1.45;;
34278;SDS011;20538;51.528;9.942;2023-02-28T07:17:33;3.50;;;1.60;;
34278;SDS011;20538;51.528;9.942;2023-02-28T07:19:59;3.25;;;1.77;;
34278;SDS011;20538;51.528;9.942;2023-02-28T07:22:24;3.97;;;1.60;;
34278;SDS011;20538;51.528;9.942;2023-02-28T07:24:50;5.40;;;1.40;;
34278;SDS011;20538;51.528;9.942;2023-02-28T07:27:16;4.78;;;1.60;;
34278;SDS011;20538;51.528;9.942;2023-02-28T07:29:49;3.85;;;1.50;;
34278;SDS011;20538;51.528;9.942;2023-02-28T07:32:14;3.75;;;1.50;;
34278;SDS011;20538;51.528;9.942;2023-02-28T07:34:40;6.85;;;1.60;;
34278;SDS011;20538;51.528;9.942;2023-02-28T07:37:06;3.45;;;1.80;;
34278;SDS011;20538;51.528;9.942;2023-02-28T07:39:32;3.42;;;1.77;;
34278;SDS011;20538;51.528;9.942;2023-02-28T07:41:57;4.45;;;1.52;;
34278;SDS011;20538;51.528;9.942;2023-02-28T07:44:26;6.25;;;1.80;;
34278;SDS011;20538;51.528;9.942;2023-02-28T07:46:52;5.13;;;1.70;;
34278;SDS011;20538;51.528;9.942;2023-02-28T07:49:18;5.63;;;2.30;;
34278;SDS011;20538;51.528;9.942;2023-02-28T07:51:44;4.40;;;1.67;;
34278;SDS011;20538;51.528;9.942;2023-02-28T07:54:09;2.53;;;1.60;;
34278;SDS011;20538;51.528;9.942;2023-02-28T07:56:35;5.22;;;1.98;;
34278;SDS011;20538;51.528;9.942;2023-02-28T07:59:01;6.90;;;2.35;;
34278;SDS011;20538;51.528;9.942;2023-02-28T08:01:26;4.13;;;1.80;;
34278;SDS011;20538;51.528;9.942;2023-02-28T08:03:52;7.47;;;1.80;;
34278;SDS011;20538;51.528;9.942;2023-02-28T08:06:21;4.05;;;2.67;;
34278;SDS011;20538;51.528;9.942;2023-02-28T08:08:48;3.42;;;1.88;;
34278;SDS011;20538;51.528;9.942;2023-02-28T08:11:15;4.40;;;1.95;;
34278;SDS011;20538;51.528;9.942;2023-02-28T08:13:42;3.75;;;2.17;;
34278;SDS011;20538;51.528;9.942;2023-02-28T08:16:08;3.17;;;2.10;;
34278;SDS011;20538;51.528;9.942;2023-02-28T08:18:35;5.03;;;2.08;;
34278;SDS011;20538;51.528;9.942;2023-02-28T08:21:05;4.88;;;2.20;;
34278;SDS011;20538;51.528;9.942;2023-02-28T08:23:35;4.60;;;2.40;;
34278;SDS011;20538;51.528;9.942;2023-02-28T08:26:01;5.30;;;2.60;;
34278;SDS011;20538;51.528;9.942;2023-02-28T08:28:27;3.95;;;2.65;;
34278;SDS011;20538;51.528;9.942;2023-02-28T08:30:53;5.78;;;2.22;;
34278;SDS011;20538;51.528;9.942;2023-02-28T08:33:19;6.13;;;2.53;;
34278;SDS011;20538;51.528;9.942;2023-02-28T08:35:45;5.38;;;2.55;;
34278;SDS011;20538;51.528;9.942;2023-02-28T08:38:11;2.92;;;2.05;;
34278;SDS011;20538;51.528;9.942;2023-02-28T08:40:37;4.65;;;2.60;;
34278;SDS011;20538;51.528;9.942;2023-02-28T08:43:03;3.55;;;2.40;;
34278;SDS011;20538;51.528;9.942;2023-02-28T08:45:29;4.53;;;2.58;;
34278;SDS011;20538;51.528;9.942;2023-02-28T08:47:58;5.05;;;2.38;;
34278;SDS011;20538;51.528;9.942;2023-02-28T08:50:24;6.40;;;2.70;;
34278;SDS011;20538;51.528;9.942;2023-02-28T08:52:49;5.38;;;3.15;;
34278;SDS011;20538;51.528;9.942;2023-02-28T08:55:15;6.10;;;2.78;;
34278;SDS011;20538;51.528;9.942;2023-02-28T08:57:40;5.53;;;2.85;;
34278;SDS011;20538;51.528;9.942;2023-02-28T09:00:06;5.15;;;2.85;;
34278;SDS011;20538;51.528;9.942;2023-02-28T09:02:32;3.95;;;2.35;;
34278;SDS011;20538;51.528;9.942;2023-02-28T09:04:58;6.85;;;3.35;;
34278;SDS011;20538;51.528;9.942;2023-02-28T09:07:24;6.25;;;3.28;;
34278;SDS011;20538;51.528;9.942;2023-02-28T09:09:50;4.22;;;2.72;;
34278;SDS011;20538;51.528;9.942;2023-02-28T09:12:22;6.05;;;3.08;;
34278;SDS011;20538;51.528;9.942;2023-02-28T09:14:49;6.32;;;3.10;;
34278;SDS011;20538;51.528;9.942;2023-02-28T09:17:15;6.35;;;3.08;;
34278;SDS011;20538;51.528;9.942;2023-02-28T09:19:41;7.68;;;3.20;;
34278;SDS011;20538;51.528;9.942;2023-02-28T09:22:07;7.07;;;3.10;;
34278;SDS011;20538;51.528;9.942;2023-02-28T09:24:35;8.75;;;3.35;;
34278;SDS011;20538;51.528;9.942;2023-02-28T09:27:01;5.10;;;2.88;;
34278;SDS011;20538;51.528;9.942;2023-02-28T09:29:26;12.63;;;3.58;;
34278;SDS011;20538;51.528;9.942;2023-02-28T09:31:52;5.07;;;2.75;;
34278;SDS011;20538;51.528;9.942;2023-02-28T09:34:17;5.90;;;3.40;;
34278;SDS011;20538;51.528;9.942;2023-02-28T09:36:43;10.52;;;2.80;;
34278;SDS011;20538;51.528;9.942;2023-02-28T09:39:09;8.98;;;2.90;;
34278;SDS011;20538;51.528;9.942;2023-02-28T09:41:39;6.25;;;3.15;;
34278;SDS011;20538;51.528;9.942;2023-02-28T09:44:16;5.90;;;3.00;;
34278;SDS011;20538;51.528;9.942;2023-02-28T09:47:21;3.00;;;2.70;;
34278;SDS011;20538;51.528;9.942;2023-02-28T09:52:58;4.32;;;2.90;;
34278;SDS011;20538;51.528;9.942;2023-02-28T09:55:30;7.97;;;3.00;;
34278;SDS011;20538;51.528;9.942;2023-02-28T09:58:20;4.50;;;2.70;;
34278;SDS011;20538;51.528;9.942;2023-02-28T10:03:58;6.20;;;2.95;;
34278;SDS011;20538;51.528;9.942;2023-02-28T10:06:35;4.75;;;2.90;;
34278;SDS011;20538;51.528;9.942;2023-02-28T10:09:13;5.65;;;2.67;;
34278;SDS011;20538;51.528;9.942;2023-02-28T10:11:47;5.13;;;3.28;;
34278;SDS011;20538;51.528;9.942;2023-02-28T10:14:16;7.70;;;3.28;;
34278;SDS011;20538;51.528;9.942;2023-02-28T10:17:32;6.93;;;4.00;;
34278;SDS011;20538;51.528;9.942;2023-02-28T10:22:38;12.23;;;3.08;;
34278;SDS011;20538;51.528;9.942;2023-02-28T10:25:16;5.05;;;3.53;;
34278;SDS011;20538;51.528;9.942;2023-02-28T10:27:44;4.78;;;3.42;;
34278;SDS011;20538;51.528;9.942;2023-02-28T10:30:10;5.57;;;3.25;;
34278;SDS011;20538;51.528;9.942;2023-02-28T10:32:38;5.68;;;3.03;;
34278;SDS011;20538;51.528;9.942;2023-02-28T10:35:10;5.45;;;3.20;;
34278;SDS011;20538;51.528;9.942;2023-02-28T10:37:45;8.13;;;3.33;;
34278;SDS011;20538;51.528;9.942;2023-02-28T10:43:12;5.82;;;2.75;;
34278;SDS011;20538;51.528;9.942;2023-02-28T10:45:35;4.72;;;2.88;;
34278;SDS011;20538;51.528;9.942;2023-02-28T10:48:03;4.63;;;3.13;;
34278;SDS011;20538;51.528;9.942;2023-02-28T10:50:36;4.90;;;3.30;;
34278;SDS011;20538;51.528;9.942;2023-02-28T10:53:14;7.10;;;3.17;;
34278;SDS011;20538;51.528;9.942;2023-02-28T10:55:41;5.32;;;2.85;;
34278;SDS011;20538;51.528;9.942;2023-02-28T10:58:29;6.03;;;3.63;;
34278;SDS011;20538;51.528;9.942;2023-02-28T11:00:55;8.13;;;3.53;;
34278;SDS011;20538;51.528;9.942;2023-02-28T11:03:40;6.25;;;3.67;;
34278;SDS011;20538;51.528;9.942;2023-02-28T11:06:07;9.23;;;3.45;;
34278;SDS011;20538;51.528;9.942;2023-02-28T11:08:43;7.43;;;3.00;;
34278;SDS011;20538;51.528;9.942;2023-02-28T11:11:16;3.95;;;2.90;;
34278;SDS011;20538;51.528;9.942;2023-02-28T11:13:43;5.03;;;3.47;;
34278;SDS011;20538;51.528;9.942;2023-02-28T11:16:12;8.10;;;3.42;;
34278;SDS011;20538;51.528;9.942;2023-02-28T11:21:28;6.03;;;3.42;;
34278;SDS011;20538;51.528;9.942;2023-02-28T11:24:03;6.20;;;3.67;;
34278;SDS011;20538;51.528;9.942;2023-02-28T11:26:48;5.78;;;3.15;;
34278;SDS011;20538;51.528;9.942;2023-02-28T11:32:23;8.52;;;4.47;;
34278;SDS011;20538;51.528;9.942;2023-02-28T11:34:43;6.65;;;3.80;;
34278;SDS011;20538;51.528;9.942;2023-02-28T11:37:27;6.07;;;3.58;;
34278;SDS011;20538;51.528;9.942;2023-02-28T11:39:53;7.35;;;3.58;;
34278;SDS011;20538;51.528;9.942;2023-02-28T11:42:23;7.95;;;3.42;;
34278;SDS011;20538;51.528;9.942;2023-02-28T11:52:59;7.25;;;3.72;;
34278;SDS011;20538;51.528;9.942;2023-02-28T11:55:37;4.82;;;3.35;;
34278;SDS011;20538;51.528;9.942;2023-02-28T12:06:49;8.93;;;3.10;;
34278;SDS011;20538;51.528;9.942;2023-02-28T12:10:14;11.90;;;3.63;;
34278;SDS011;20538;51.528;9.942;2023-02-28T12:15:52;8.55;;;3.50;;
34278;SDS011;20538;51.528;9.942;2023-02-28T12:28:36;6.38;;;3.28;;
34278;SDS011;20538;51.528;9.942;2023-02-28T12:33:46;5.35;;;3.25;;
34278;SDS011;20538;51.528;9.942;2023-02-28T12:36:16;6.63;;;3.55;;
34278;SDS011;20538;51.528;9.942;2023-02-28T12:41:54;5.35;;;3.22;;
34278;SDS011;20538;51.528;9.942;2023-02-28T12:47:03;6.43;;;3.50;;
34278;SDS011;20538;51.528;9.942;2023-02-28T12:49:39;6.20;;;3.35;;
34278;SDS011;20538;51.528;9.942;2023-02-28T12:52:41;8.98;;;3.45;;
34278;SDS011;20538;51.528;9.942;2023-02-28T12:58:14;6.45;;;2.92;;
34278;SDS011;20538;51.528;9.942;2023-02-28T13:10:00;5.28;;;3.05;;
34278;SDS011;20538;51.528;9.942;2023-02-28T13:12:28;5.22;;;3.13;;
34278;SDS011;20538;51.528;9.942;2023-02-28T13:17:29;4.45;;;2.83;;
34278;SDS011;20538;51.528;9.942;2023-02-28T13:24:54;8.55;;;3.60;;
34278;SDS011;20538;51.528;9.942;2023-02-28T13:27:22;8.27;;;3.78;;
34278;SDS011;20538;51.528;9.942;2023-02-28T13:29:49;6.55;;;3.95;;
34278;SDS011;20538;51.528;9.942;2023-02-28T13:32:19;6.63;;;3.53;;
34278;SDS011;20538;51.528;9.942;2023-02-28T13:55:38;5.63;;;3.03;;
34278;SDS011;20538;51.528;9.942;2023-02-28T14:01:29;5.65;;;3.38;;
34278;SDS011;20538;51.528;9.942;2023-02-28T14:06:58;9.00;;;3.55;;
34278;SDS011;20538;51.528;9.942;2023-02-28T14:09:32;12.52;;;4.35;;
34278;SDS011;20538;51.528;9.942;2023-02-28T14:15:23;6.68;;;3.72;;
34278;SDS011;20538;51.528;9.942;2023-02-28T14:20:47;5.60;;;3.85;;
34278;SDS011;20538;51.528;9.942;2023-02-28T14:23:35;6.68;;;3.85;;
34278;SDS011;20538;51.528;9.942;2023-02-28T14:26:17;10.60;;;5.38;;
34278;SDS011;20538;51.528;9.942;2023-02-28T14:29:07;7.93;;;4.30;;
34278;SDS011;20538;51.528;9.942;2023-02-28T14:32:10;7.13;;;3.58;;
34278;SDS011;20538;51.528;9.942;2023-02-28T14:34:42;8.77;;;4.10;;
34278;SDS011;20538;51.528;9.942;2023-02-28T14:37:14;7.30;;;3.95;;
34278;SDS011;20538;51.528;9.942;2023-02-28T14:39:44;6.47;;;3.90;;
34278;SDS011;20538;51.528;9.942;2023-02-28T14:42:31;5.72;;;4.22;;
34278;SDS011;20538;51.528;9.942;2023-02-28T14:44:58;7.40;;;3.92;;
34278;SDS011;20538;51.528;9.942;2023-02-28T14:47:27;6.97;;;4.18;;
34278;SDS011;20538;51.528;9.942;2023-02-28T14:49:55;6.30;;;3.92;;
34278;SDS011;20538;51.528;9.942;2023-02-28T14:52:29;7.10;;;4.10;;
34278;SDS011;20538;51.528;9.942;2023-02-28T14:54:58;8.25;;;4.28;;
34278;SDS011;20538;51.528;9.942;2023-02-28T14:57:55;10.18;;;3.95;;
34278;SDS011;20538;51.528;9.942;2023-02-28T15:00:29;15.18;;;4.72;;
34278;SDS011;20538;51.528;9.942;2023-02-28T15:02:56;8.57;;;4.60;;
34278;SDS011;20538;51.528;9.942;2023-02-28T15:05:30;7.40;;;3.90;;
34278;SDS011;20538;51.528;9.942;2023-02-28T15:08:04;9.02;;;5.25;;
34278;SDS011;20538;51.528;9.942;2023-02-28T15:10:39;7.60;;;4.43;;
34278;SDS011;20538;51.528;9.942;2023-02-28T15:13:11;8.18;;;4.50;;
34278;SDS011;20538;51.528;9.942;2023-02-28T15:18:05;10.85;;;4.65;;
34278;SDS011;20538;51.528;9.942;2023-02-28T15:20:38;7.40;;;4.95;;
34278;SDS011;20538;51.528;9.942;2023-02-28T15:23:05;8.70;;;4.45;;
34278;SDS011;20538;51.528;9.942;2023-02-28T15:25:30;9.32;;;4.70;;
34278;SDS011;20538;51.528;9.942;2023-02-28T15:27:56;5.85;;;4.25;;
34278;SDS011;20538;51.528;9.942;2023-02-28T15:30:26;8.88;;;4.03;;
34278;SDS011;20538;51.528;9.942;2023-02-28T15:35:38;9.10;;;4.45;;
34278;SDS011;20538;51.528;9.942;2023-02-28T15:41:02;7.53;;;4.05;;
34278;SDS011;20538;51.528;9.942;2023-02-28T15:43:34;11.65;;;4.00;;
34278;SDS011;20538;51.528;9.942;2023-02-28T15:46:11;10.10;;;5.20;;
34278;SDS011;20538;51.528;9.942;2023-02-28T15:48:54;6.70;;;4.00;;
34278;SDS011;20538;51.528;9.942;2023-02-28T15:51:32;7.47;;;4.18;;
34278;SDS011;20538;51.528;9.942;2023-02-28T15:54:05;7.00;;;4.45;;
34278;SDS011;20538;51.528;9.942;2023-02-28T15:56:37;6.93;;;4.53;;
34278;SDS011;20538;51.528;9.942;2023-02-28T15:59:08;9.10;;;4.80;;
34278;SDS011;20538;51.528;9.942;2023-02-28T16:01:41;9.73;;;5.68;;
34278;SDS011;20538;51.528;9.942;2023-02-28T16:09:25;11.52;;;4.57;;
34278;SDS011;20538;51.528;9.942;2023-02-28T16:11:53;10.70;;;4.97;;
34278;SDS011;20538;51.528;9.942;2023-02-28T16:14:24;8.82;;;5.00;;
34278;SDS011;20538;51.528;9.942;2023-02-28T16:17:02;10.68;;;5.88;;
34278;SDS011;20538;51.528;9.942;2023-02-28T16:19:30;8.35;;;4.80;;
34278;SDS011;20538;51.528;9.942;2023-02-28T16:21:56;9.18;;;5.30;;
34278;SDS011;20538;51.528;9.942;2023-02-28T16:24:22;12.77;;;5.53;;
34278;SDS011;20538;51.528;9.942;2023-02-28T16:26:48;7.72;;;4.93;;
34278;SDS011;20538;51.528;9.942;2023-02-28T16:29:26;11.13;;;5.72;;
34278;SDS011;20538;51.528;9.942;2023-02-28T16:31:56;13.63;;;5.30;;
34278;SDS011;20538;51.528;9.942;2023-02-28T16:34:22;10.85;;;5.68;;
34278;SDS011;20538;51.528;9.942;2023-02-28T16:36:48;8.93;;;5.88;;
34278;SDS011;20538;51.528;9.942;2023-02-28T16:39:14;12.00;;;5.45;;
34278;SDS011;20538;51.528;9.942;2023-02-28T16:41:44;11.70;;;5.45;;
34278;SDS011;20538;51.528;9.942;2023-02-28T16:44:13;9.98;;;5.90;;
34278;SDS011;20538;51.528;9.942;2023-02-28T16:46:49;14.15;;;6.68;;
34278;SDS011;20538;51.528;9.942;2023-02-28T16:49:15;7.57;;;5.22;;
34278;SDS011;20538;51.528;9.942;2023-02-28T16:51:40;9.38;;;5.55;;
34278;SDS011;20538;51.528;9.942;2023-02-28T16:54:06;9.35;;;5.38;;
34278;SDS011;20538;51.528;9.942;2023-02-28T16:56:31;10.30;;;5.80;;
34278;SDS011;20538;51.528;9.942;2023-02-28T16:58:59;10.30;;;5.18;;
34278;SDS011;20538;51.528;9.942;2023-02-28T17:01:29;10.70;;;5.75;;
34278;SDS011;20538;51.528;9.942;2023-02-28T17:03:55;13.60;;;6.10;;
34278;SDS011;20538;51.528;9.942;2023-02-28T17:06:25;12.35;;;5.90;;
34278;SDS011;20538;51.528;9.942;2023-02-28T17:08:56;10.45;;;6.07;;
34278;SDS011;20538;51.528;9.942;2023-02-28T17:11:23;12.95;;;6.80;;
34278;SDS011;20538;51.528;9.942;2023-02-28T17:13:49;12.18;;;6.95;;
34278;SDS011;20538;51.528;9.942;2023-02-28T17:19:01;14.27;;;7.90;;
34278;SDS011;20538;51.528;9.942;2023-02-28T17:21:29;15.90;;;7.68;;
34278;SDS011;20538;51.528;9.942;2023-02-28T17:23:56;17.38;;;7.50;;
34278;SDS011;20538;51.528;9.942;2023-02-28T17:26:24;17.40;;;9.23;;
34278;SDS011;20538;51.528;9.942;2023-02-28T17:28:51;14.90;;;8.38;;
34278;SDS011;20538;51.528;9.942;2023-02-28T17:31:18;12.70;;;6.85;;
34278;SDS011;20538;51.528;9.942;2023-02-28T17:33:44;13.00;;;7.63;;
34278;SDS011;20538;51.528;9.942;2023-02-28T17:36:18;17.05;;;8.30;;
34278;SDS011;20538;51.528;9.942;2023-02-28T17:38:47;17.38;;;8.27;;
34278;SDS011;20538;51.528;9.942;2023-02-28T17:41:13;18.23;;;8.82;;
34278;SDS011;20538;51.528;9.942;2023-02-28T17:43:39;23.40;;;11.35;;
34278;SDS011;20538;51.528;9.942;2023-02-28T17:46:05;15.40;;;9.05;;
34278;SDS011;20538;51.528;9.942;2023-02-28T17:48:37;16.50;;;9.05;;